Flight Track Log - Related Links

Times and Time Zones

All times are in EDT time to prevent confusion due to time zone crossing. See the SKQ45 flight status page for this flight to view local times or setup timezone preferences in your user account.

Time Position Orientation Groundspeed Altitude Reporting Facility
EDT Latitude Longitude Course Direction KTS MPH feet Rate Location/Type
Fri 11:48:53 PM 38.7661 -90.3156 68° East 130 150 2,200  Level FAA TRACON SMA TRACON (SMA)
Fri 11:49:13 PM 38.7753 -90.3067 37° Northeast 141 162 2,800 1,902 Climbing FAA TRACON SMA TRACON (SMA)
Fri 11:49:34 PM 38.7844 -90.2889 57° Northeast 153 176 3,500 1,773 Climbing FAA TRACON SMA TRACON (SMA)
Fri 11:49:57 PM 38.7917 -90.2742 58° Northeast 159 183 4,100 1,674 Climbing FAA TRACON SMA TRACON (SMA)
Fri 11:50:17 PM 38.8003 -90.2550 60° Northeast 162 186 4,700 2,000 Climbing FAA TRACON SMA TRACON (SMA)
Fri 11:50:33 PM 38.8072 -90.2394 60° Northeast 163 188 5,300 1,946 Climbing FAA TRACON SMA TRACON (SMA)
Fri 11:50:54 PM 38.8147 -90.2244 57° Northeast 163 188 5,900 1,610 Climbing FAA TRACON SMA TRACON (SMA)
Fri 11:51:14 PM 38.8219 -90.2092 59° Northeast 164 189 6,400 1,800 Climbing FAA TRACON SMA TRACON (SMA)
Fri 11:51:34 PM 38.8314 -90.1889 59° Northeast 169 194 7,100 1,950 Climbing FAA TRACON SMA TRACON (SMA)
Fri 11:51:54 PM 38.8400 -90.1747 52° Northeast 168 193 7,700 1,692 Climbing FAA TRACON SMA TRACON (SMA)
Fri 11:52:13 PM 38.8492 -90.1608 50° Northeast 165 190 8,200 2,000 Climbing FAA TRACON SMA TRACON (SMA)
Fri 11:52:33 PM 38.8600 -90.1436 51° Northeast 163 188 9,000 1,902 Climbing FAA TRACON SMA TRACON (SMA)
Fri 11:52:54 PM 38.8697 -90.1306 46° Northeast 163 188 9,500 1,463 Climbing FAA TRACON SMA TRACON (SMA)
Fri 11:53:14 PM 38.8786 -90.1161 52° Northeast 166 191 10,000 1,692 Climbing FAA TRACON SMA TRACON (SMA)
Fri 11:53:33 PM 38.8903 -90.0992 49° Northeast 167 192 10,600 1,500 Climbing FAA TRACON SMA TRACON (SMA)
Fri 11:53:54 PM 38.9003 -90.0853 47° Northeast 170 196 11,000 1,317 Climbing FAA TRACON SMA TRACON (SMA)
Fri 11:54:14 PM 38.9097 -90.0706 50° Northeast 173 199 11,500 1,692 Climbing FAA TRACON SMA TRACON (SMA)
Fri 11:54:33 PM 38.9211 -90.0519 52° Northeast 174 200 12,100 1,500 Climbing FAA TRACON SMA TRACON (SMA)
Fri 11:54:54 PM 38.9317 -90.0378 46° Northeast 178 205 12,500 1,317 Climbing FAA TRACON SMA TRACON (SMA)
Fri 11:55:14 PM 38.9417 -90.0225 50° Northeast 179 206 13,000 1,692 Climbing FAA TRACON SMA TRACON (SMA)
Fri 11:55:33 PM 38.9533 -90.0025 53° Northeast 183 211 13,600 1,692 Climbing FAA TRACON SMA TRACON (SMA)
Fri 11:55:53 PM 38.9625 -89.9858 55° Northeast 183 211 14,100 1,610 Climbing FAA TRACON SMA TRACON (SMA)
Fri 11:56:14 PM 38.9725 -89.9706 50° Northeast 183 211 14,700 1,756 Climbing FAA TRACON SMA TRACON (SMA)
Fri 11:56:34 PM 38.9847 -89.9503 52° Northeast 187 215 15,300 1,692 Climbing FAA TRACON SMA TRACON (SMA)
Fri 11:56:53 PM 38.9964 -89.9356 44° Northeast 192 221 15,800 1,350 Climbing FAA TRACON SMA TRACON (SMA)
Fri 11:57:14 PM 39.0064 -89.9194 51° Northeast 191 220 16,200 1,610 Climbing FAA TRACON SMA TRACON (SMA)
Fri 11:57:34 PM 39.0203 -89.8997 48° Northeast 191 220 16,900 1,650 Climbing FAA TRACON SMA TRACON (SMA)
Fri 11:57:54 PM 39.0300 -89.8828 54° Northeast 193 222 17,300 1,077 Climbing FAA TRACON SMA TRACON (SMA)
Fri 11:58:13 PM 39.0411 -89.8667 48° Northeast 193 222 17,600 1,200 Climbing FAA TRACON SMA TRACON (SMA)
Fri 11:58:34 PM 39.0553 -89.8469 47° Northeast 197 227 18,100 1,317 Climbing FAA TRACON SMA TRACON (SMA)
Fri 11:58:54 PM 39.0650 -89.8283 56° Northeast 200 230 18,500 1,231 Climbing FAA TRACON SMA TRACON (SMA)
Fri 11:59:13 PM 39.0756 -89.8114 51° Northeast 199 229 18,900 1,350 Climbing FAA TRACON SMA TRACON (SMA)
Fri 11:59:34 PM 39.0883 -89.7889 54° Northeast 202 232 19,400 1,171 Climbing FAA TRACON SMA TRACON (SMA)
Fri 11:59:54 PM 39.0981 -89.7703 56° Northeast 204 235 19,700 1,077 Climbing FAA TRACON SMA TRACON (SMA)
Sat 12:00:13 AM 39.1083 -89.7517 55° Northeast 207 238 20,100 1,231 Climbing FAA TRACON SMA TRACON (SMA)
Sat 12:00:33 AM 39.1203 -89.7269 58° Northeast 210 242 20,500 1,024 Climbing FAA TRACON SMA TRACON (SMA)
Sat 12:00:54 AM 39.1294 -89.7056 61° Northeast 218 251 20,800 878 Climbing FAA TRACON SMA TRACON (SMA)
Sat 12:01:14 AM 39.1347 -89.6800 75° East 232 267 21,100 900 Climbing FAA TRACON SMA TRACON (SMA)
Sat 12:01:34 AM 39.1383 -89.6456 82° East 249 287 21,400 878 Climbing FAA TRACON SMA TRACON (SMA)
Sat 12:01:55 AM 39.1422 -89.6181 80° East 254 292 21,700 1,077 Climbing FAA TRACON SMA TRACON (SMA)
Sat 12:02:13 AM 39.1467 -89.5908 78° East 254 292 22,100 1,077 Climbing FAA TRACON SMA TRACON (SMA)
Sat 12:02:34 AM 39.1511 -89.5567 80° East 253 291 22,400 878 Climbing FAA TRACON SMA TRACON (SMA)
Sat 12:02:54 AM 39.1564 -89.5306 75° East 248 285 22,700 750 Climbing FAA TRACON SMA TRACON (SMA)
Sat 12:03:14 AM 39.1617 -89.5036 76° East 249 287 22,900 462 Climbing FAA TRACON SMA TRACON (SMA)
Sat 12:03:33 AM 39.1686 -89.4692 75° East 258 297 23,000 150 Climbing FAA TRACON SMA TRACON (SMA)
Sat 12:03:54 AM 39.1728 -89.4389 80° East 269 310 23,000  Level FAA TRACON SMA TRACON (SMA)
Sat 12:04:14 AM 39.1792 -89.4094 74° East 278 320 23,000  Level FAA TRACON SMA TRACON (SMA)
Sat 12:04:34 AM 39.1842 -89.3683 81° East 293 337 23,000  Level FAA TRACON SMA TRACON (SMA)
Sat 12:04:53 AM 39.1906 -89.3364 76° East 300 345 23,000  Level FAA TRACON SMA TRACON (SMA)
Sat 12:05:14 AM 39.1958 -89.3031 78° East 305 351 23,000  Level FAA TRACON SMA TRACON (SMA)
Sat 12:05:34 AM 39.2036 -89.2619 76° East 309 356 23,000  Level FAA TRACON SMA TRACON (SMA)
Sat 12:05:53 AM 39.2078 -89.2272 81° East 314 361 23,000  Level FAA TRACON SMA TRACON (SMA)
Sat 12:06:14 AM 39.2111 -89.2108 75° East 315 362 23,000  Level FAA TRACON SMA TRACON (SMA)
Sat 12:06:54 AM 39.2258 -89.1886 49° Northeast 313 360 23,000  Level Kansas City Center
Sat 12:07:53 AM 39.2442 -89.0756 78° East 321 369 23,000  Level Kansas City Center
Sat 12:08:56 AM 39.2631 -88.9639 78° East 321 369 23,000  Level Kansas City Center
Sat 12:09:57 AM 39.2831 -88.8517 77° East 321 369 23,000  Level Kansas City Center
Sat 12:10:57 AM 39.3006 -88.7378 79° East 323 372 23,000  Level Kansas City Center
Sat 12:11:57 AM 39.3192 -88.6247 78° East 323 372 23,000  Level Kansas City Center
Sat 12:12:59 AM 39.3400 -88.5011 78° East 324 373 23,000  Level Kansas City Center
Sat 12:13:59 AM 39.3592 -88.3856 78° East 326 375 23,000  Level Kansas City Center
Sat 12:14:59 AM 39.3767 -88.2706 79° East 326 375 23,000  Level Kansas City Center
Sat 12:16:01 AM 39.3942 -88.1556 79° East 325 374 23,000  Level Kansas City Center
Sat 12:17:02 AM 39.4122 -88.0394 79° East 326 375 23,000  Level Kansas City Center
Sat 12:18:03 AM 39.4297 -87.9256 79° East 324 373 23,000  Level Kansas City Center
Sat 12:18:53 AM 39.4475 -87.8128 78° East 324 373 23,000  Level Indianapolis Center
Sat 12:19:54 AM 39.4653 -87.6975 79° East 324 373 23,000  Level Indianapolis Center
Sat 12:20:55 AM 39.4836 -87.5822 78° East 325 374 23,000  Level Indianapolis Center
Sat 12:21:56 AM 39.4997 -87.4706 79° East 320 368 23,000  Level Indianapolis Center
Sat 12:22:57 AM 39.5169 -87.3589 79° East 317 365 23,000  Level Indianapolis Center
Sat 12:23:58 AM 39.5336 -87.2467 79° East 315 362 23,000  Level Indianapolis Center
Sat 12:24:59 AM 39.5508 -87.1328 79° East 318 366 23,000  Level Indianapolis Center
Sat 12:26:00 AM 39.5667 -87.0217 79° East 314 361 23,000  Level Indianapolis Center
Sat 12:27:01 AM 39.5839 -86.9106 79° East 313 360 23,000  Level Indianapolis Center
Sat 12:28:02 AM 39.6000 -86.7992 79° East 313 360 23,000  Level Indianapolis Center
Sat 12:29:02 AM 39.6167 -86.6853 79° East 319 367 23,000  Level Indianapolis Center
Sat 12:30:03 AM 39.6325 -86.5744 79° East 314 361 23,000  Level Indianapolis Center
Sat 12:31:04 AM 39.6492 -86.4581 79° East 321 369 23,000  Level Indianapolis Center
Sat 12:32:05 AM 39.6656 -86.3442 79° East 320 368 23,000  Level Indianapolis Center
Sat 12:33:06 AM 39.6808 -86.2297 80° East 320 368 23,000  Level Indianapolis Center
Sat 12:34:07 AM 39.6975 -86.1169 79° East 318 366 23,000  Level Indianapolis Center
Sat 12:35:07 AM 39.7125 -86.0011 80° East 321 369 23,000 -50 Level Indianapolis Center
Sat 12:36:08 AM 39.7292 -85.8797 80° East 321 369 22,900  Descending Indianapolis Center
Sat 12:37:09 AM 39.7464 -85.7650 79° East 321 369 23,000 49 Climbing Indianapolis Center
Sat 12:38:10 AM 39.7617 -85.6489 80° East 323 372 23,000  Level Indianapolis Center
Sat 12:39:11 AM 39.7775 -85.5336 80° East 323 372 23,000  Level Indianapolis Center
Sat 12:40:11 AM 39.7928 -85.4161 80° East 325 374 23,000 -50 Level Indianapolis Center
Sat 12:41:12 AM 39.8092 -85.3003 80° East 325 374 22,900 -148 Descending Indianapolis Center
Sat 12:42:13 AM 39.8231 -85.1839 81° East 325 374 22,700 -738 Descending Indianapolis Center
Sat 12:43:14 AM 39.8381 -85.0600 81° East 341 392 21,400 -1,388 Descending Indianapolis Center
Sat 12:44:14 AM 39.8558 -84.9389 79° East 338 389 19,900 -1,438 Descending Indianapolis Center
Sat 12:45:15 AM 39.8700 -84.8250 81° East 319 367 18,500 -1,377 Descending Indianapolis Center
Sat 12:46:16 AM 39.8853 -84.7092 80° East 322 371 17,100 -1,328 Descending Indianapolis Center
Sat 12:47:17 AM 39.8997 -84.5919 81° East 324 373 15,800 -1,289 Descending Indianapolis Center
Sat 12:48:17 AM 39.9153 -84.4767 80° East 322 371 14,500 -1,190 Descending Indianapolis Center
Sat 12:49:18 AM 39.9289 -84.3631 81° East 319 367 13,400 -1,131 Descending Indianapolis Center
Sat 12:50:19 AM 39.9425 -84.2494 81° East 315 362 12,200 -1,190 Descending Indianapolis Center
Sat 12:51:19 AM 39.9564 -84.1350 81° East 316 364 11,000 -1,145 Descending Indianapolis Center
Sat 12:52:09 AM 39.9669 -84.0383 82° East 311 358 10,100 -1,200 Descending Indianapolis Center
Sat 12:53:09 AM 39.9794 -83.9311 81° East 295 339 8,800 -1,240 Descending Indianapolis Center
Sat 12:54:10 AM 39.9939 -83.8239 80° East 289 333 7,600 -1,041 Descending Indianapolis Center
Sat 12:55:10 AM 40.0056 -83.7247 81° East 274 315 6,700 -893 Descending Indianapolis Center
Sat 12:56:11 AM 40.0175 -83.6197 82° East 282 325 5,800 -887 Descending Indianapolis Center
Sat 12:57:05 AM 40.0281 -83.5314 81° East 283 326 5,000 -917 Descending Indianapolis Center
Sat 12:57:23 AM 40.0303 -83.5067 83° East 280 322 4,700 -885 Descending Indianapolis Center
Sat 12:58:06 AM 40.0394 -83.4319 81° East 275 316 4,100 -787 Descending Indianapolis Center
Sat 12:58:24 AM 40.0425 -83.4058 81° East 278 320 3,900 -885 Descending Indianapolis Center
Sat 12:59:07 AM 40.0508 -83.3297 82° East 280 322 3,200 -900 Descending Indianapolis Center
Sat 12:59:24 AM 40.0544 -83.3036 80° East 279 321 3,000 -300 Descending Indianapolis Center
Sat 01:00:07 AM 40.0619 -83.2331 82° East 257 296 2,900 -295 Descending Indianapolis Center
Sat 01:00:25 AM 40.0647 -83.2086 82° East 272 313 2,700 -787 Descending Indianapolis Center
Sat 01:01:08 AM 40.0703 -83.1442 84° East 253 291 2,100 -787 Descending Indianapolis Center
Sat 01:01:26 AM 40.0719 -83.1186 85° East 257 296 1,900 -400 Descending Indianapolis Center
Sat 01:02:08 AM 40.0669 -83.0700 98° East 187 215 1,700 -300 Descending Indianapolis Center
Sat 01:02:26 AM 40.0656 -83.0528 96° East 206 237 1,600 -228 Descending Indianapolis Center
Sat 01:03:27 AM 40.1019 -83.0556 357° North 201 231 1,400 -197 Descending Indianapolis Center
Sat 01:05:00 AM 40.0798 -83.0732 201° Southwest  Level Estimated

Login

Don't have an account? Register now (free) for customized features, flight alerts, and more!